createdAt,value
2018-01-27T00:01:40.836Z,5.60
2018-01-27T00:04:07.858Z,5.80
2018-01-27T00:06:34.835Z,5.80
2018-01-27T00:09:02.208Z,5.80
2018-01-27T00:11:28.618Z,5.80
2018-01-27T00:13:54.870Z,5.80
2018-01-27T00:16:21.465Z,5.90
2018-01-27T00:18:47.697Z,5.90
2018-01-27T00:21:14.730Z,6.00
2018-01-27T00:23:41.558Z,5.90
2018-01-27T00:26:07.878Z,6.00
2018-01-27T00:28:34.133Z,6.10
2018-01-27T00:31:00.432Z,6.10
2018-01-27T00:33:26.655Z,6.10
2018-01-27T00:35:54.899Z,6.20
2018-01-27T00:38:21.710Z,6.30
2018-01-27T00:40:50.700Z,6.30
2018-01-27T00:43:18.223Z,6.40
2018-01-27T00:45:48.326Z,6.40
2018-01-27T00:48:15.906Z,6.50
2018-01-27T00:50:42.484Z,6.40
2018-01-27T00:53:09.121Z,6.50
2018-01-27T00:55:35.662Z,6.50
2018-01-27T00:58:03.074Z,6.60
2018-01-27T01:00:29.332Z,6.60
2018-01-27T01:02:55.719Z,6.70
2018-01-27T01:05:21.996Z,6.70
2018-01-27T01:07:48.232Z,6.70
2018-01-27T01:10:14.590Z,6.80
2018-01-27T01:12:42.657Z,6.80
2018-01-27T01:15:09.855Z,6.80
2018-01-27T01:17:36.936Z,6.80
2018-01-27T01:20:04.504Z,6.80
2018-01-27T01:22:30.755Z,6.80
2018-01-27T01:24:57.119Z,6.80
2018-01-27T01:27:23.404Z,6.80
2018-01-27T01:29:49.646Z,6.90
2018-01-27T01:32:15.871Z,6.80
2018-01-27T01:34:42.143Z,6.80
2018-01-27T01:37:08.388Z,6.70
2018-01-27T01:39:34.767Z,6.70
2018-01-27T01:42:01.063Z,6.70
2018-01-27T01:44:27.393Z,6.70
2018-01-27T01:46:57.492Z,6.70
2018-01-27T01:49:23.794Z,6.60
2018-01-27T01:51:50.075Z,6.60
2018-01-27T01:54:16.293Z,6.50
2018-01-27T01:56:42.566Z,6.40
2018-01-27T01:59:08.822Z,6.40
2018-01-27T02:01:35.914Z,6.40
2018-01-27T02:04:02.235Z,6.30
2018-01-27T02:06:28.678Z,6.30
2018-01-27T02:08:54.916Z,6.40
2018-01-27T02:11:21.247Z,6.30
2018-01-27T02:13:47.557Z,6.30
2018-01-27T02:16:14.527Z,6.30
2018-01-27T02:18:40.800Z,6.30
2018-01-27T02:21:07.036Z,6.30
2018-01-27T02:23:33.291Z,6.30
2018-01-27T02:26:00.271Z,6.40
2018-01-27T02:28:26.536Z,6.40
2018-01-27T02:30:52.768Z,6.40
2018-01-27T02:33:19.038Z,6.30
2018-01-27T02:35:45.291Z,6.30
2018-01-27T02:38:11.539Z,6.30
2018-01-27T02:40:37.812Z,6.30
2018-01-27T02:43:09.163Z,6.30
2018-01-27T02:45:35.459Z,6.30
2018-01-27T02:48:01.691Z,6.40
2018-01-27T02:50:27.961Z,6.30
2018-01-27T02:52:54.204Z,6.30
2018-01-27T02:55:21.363Z,6.30
2018-01-27T02:57:47.767Z,6.30
2018-01-27T03:00:14.035Z,6.30
2018-01-27T03:02:40.635Z,6.30
2018-01-27T03:05:06.908Z,6.30
2018-01-27T03:07:33.140Z,6.30
2018-01-27T03:09:59.395Z,6.20
2018-01-27T03:12:25.654Z,6.30
2018-01-27T03:14:52.626Z,6.30
2018-01-27T03:17:19.175Z,6.20
2018-01-27T03:19:45.494Z,6.20
2018-01-27T03:22:11.791Z,6.20
2018-01-27T03:24:38.055Z,6.20
2018-01-27T03:27:04.357Z,6.20
2018-01-27T03:29:30.587Z,6.20
2018-01-27T03:31:57.243Z,6.20
2018-01-27T03:34:23.516Z,6.20
2018-01-27T03:36:49.772Z,6.20
2018-01-27T03:39:16.025Z,6.30
2018-01-27T03:41:42.351Z,6.30
2018-01-27T03:44:08.595Z,6.40
2018-01-27T03:46:35.439Z,6.30
2018-01-27T03:49:01.731Z,6.40
2018-01-27T03:51:27.996Z,6.30
2018-01-27T03:53:54.248Z,6.40
2018-01-27T03:56:20.474Z,6.40
2018-01-27T03:58:46.719Z,6.50
2018-01-27T04:01:12.992Z,6.50
2018-01-27T04:03:39.223Z,6.50
2018-01-27T04:06:05.535Z,6.50
2018-01-27T04:08:31.787Z,6.40
2018-01-27T04:10:58.155Z,6.50
2018-01-27T04:13:24.384Z,6.50
2018-01-27T04:15:51.680Z,6.40
2018-01-27T04:18:17.950Z,6.50
2018-01-27T04:20:44.263Z,6.50
2018-01-27T04:23:10.494Z,6.40
2018-01-27T04:25:36.887Z,6.40
2018-01-27T04:28:03.146Z,6.40
2018-01-27T04:30:29.483Z,6.50
2018-01-27T04:32:55.761Z,6.50
2018-01-27T04:35:22.620Z,6.40
2018-01-27T04:37:48.875Z,6.40
2018-01-27T04:40:15.094Z,6.40
2018-01-27T04:42:41.356Z,6.40
2018-01-27T04:45:07.635Z,6.40
2018-01-27T04:47:33.875Z,6.40
2018-01-27T04:50:00.123Z,6.40
2018-01-27T04:52:26.396Z,6.40
2018-01-27T04:54:52.663Z,6.40
2018-01-27T04:57:23.183Z,6.50
2018-01-27T04:59:55.207Z,6.50
2018-01-27T05:02:21.458Z,6.50
2018-01-27T05:04:47.756Z,6.60
2018-01-27T05:07:14.002Z,6.60
2018-01-27T05:09:40.220Z,6.60
2018-01-27T05:12:06.476Z,6.60
2018-01-27T05:14:32.687Z,6.60
2018-01-27T05:16:59.899Z,6.60
2018-01-27T05:19:26.886Z,6.60
2018-01-27T05:21:53.111Z,6.60
2018-01-27T05:24:20.177Z,6.60
2018-01-27T05:26:46.600Z,6.60
2018-01-27T05:29:12.878Z,6.60
2018-01-27T05:31:39.236Z,6.70
2018-01-27T05:34:05.547Z,6.60
2018-01-27T05:36:31.778Z,6.50
2018-01-27T05:38:58.855Z,6.40
2018-01-27T05:41:26.354Z,6.40
2018-01-27T05:43:52.716Z,6.40
2018-01-27T05:46:19.500Z,6.50
2018-01-27T05:48:45.822Z,6.40
2018-01-27T05:51:12.790Z,6.50
2018-01-27T05:53:39.151Z,6.50
2018-01-27T05:56:05.406Z,6.50
2018-01-27T05:58:31.674Z,6.50
2018-01-27T06:00:57.960Z,6.40
2018-01-27T06:03:24.195Z,6.40
2018-01-27T06:05:50.435Z,6.40
2018-01-27T06:08:16.838Z,6.30
2018-01-27T06:10:43.224Z,6.40
2018-01-27T06:13:09.470Z,6.30
2018-01-27T06:15:36.587Z,6.30
2018-01-27T06:18:02.878Z,6.30
2018-01-27T06:20:29.087Z,6.30
2018-01-27T06:22:55.999Z,6.20
2018-01-27T06:25:22.343Z,6.10
2018-01-27T06:27:49.058Z,6.10
2018-01-27T06:30:16.518Z,6.00
2018-01-27T06:32:44.142Z,6.00
2018-01-27T06:35:10.602Z,5.90
2018-01-27T06:37:36.962Z,6.00
2018-01-27T06:40:03.959Z,5.90
2018-01-27T06:42:32.870Z,6.00
2018-01-27T06:44:59.107Z,6.00
2018-01-27T06:47:25.340Z,6.00
2018-01-27T06:49:51.858Z,6.10
2018-01-27T06:52:18.355Z,6.10
2018-01-27T06:54:44.920Z,6.20
2018-01-27T06:57:11.462Z,6.30
2018-01-27T06:59:37.754Z,6.30
2018-01-27T07:02:04.726Z,6.30
2018-01-27T07:04:31.000Z,6.30
2018-01-27T07:06:57.573Z,6.40
2018-01-27T07:09:23.954Z,6.40
2018-01-27T07:11:50.228Z,6.40
2018-01-27T07:14:16.543Z,6.40
2018-01-27T07:16:42.800Z,6.30
2018-01-27T07:19:09.047Z,6.40
2018-01-27T07:21:36.156Z,6.40
2018-01-27T07:24:02.407Z,6.30
2018-01-27T07:26:29.406Z,6.40
2018-01-27T07:28:55.680Z,6.40
2018-01-27T07:31:21.923Z,6.40
2018-01-27T07:33:49.004Z,6.30
2018-01-27T07:36:15.286Z,6.30
2018-01-27T07:38:43.119Z,6.40
2018-01-27T07:41:09.487Z,6.40
2018-01-27T07:43:35.718Z,6.50
2018-01-27T07:46:02.102Z,6.40
2018-01-27T07:48:28.574Z,6.40
2018-01-27T07:50:54.876Z,6.50
2018-01-27T07:53:21.155Z,6.40
2018-01-27T07:55:47.655Z,6.50
2018-01-27T07:58:13.927Z,6.40
2018-01-27T08:00:40.923Z,6.40
2018-01-27T08:03:07.185Z,6.40
2018-01-27T08:05:33.491Z,6.40
2018-01-27T08:07:59.781Z,6.50
2018-01-27T08:10:26.755Z,6.50
2018-01-27T08:12:53.007Z,6.50
2018-01-27T08:15:19.239Z,6.50
2018-01-27T08:17:47.594Z,6.70
2018-01-27T08:20:14.067Z,6.60
2018-01-27T08:22:40.388Z,6.60
2018-01-27T08:25:06.667Z,6.60
2018-01-27T08:27:33.035Z,6.60
2018-01-27T08:29:59.287Z,6.70
2018-01-27T08:32:25.955Z,6.70
2018-01-27T08:34:52.221Z,6.70
2018-01-27T08:37:18.655Z,6.70
2018-01-27T08:39:45.654Z,6.90
2018-01-27T08:42:11.886Z,6.90
2018-01-27T08:44:41.835Z,7.00
2018-01-27T08:47:08.860Z,7.00
2018-01-27T08:49:35.192Z,7.00
2018-01-27T08:52:01.447Z,6.90
2018-01-27T08:54:27.695Z,6.90
2018-01-27T08:56:53.972Z,6.80
2018-01-27T08:59:20.201Z,6.70
2018-01-27T09:01:46.476Z,6.70
2018-01-27T09:04:13.479Z,6.60
2018-01-27T09:06:39.747Z,6.60
2018-01-27T09:09:05.974Z,6.60
2018-01-27T09:11:32.978Z,6.70
2018-01-27T09:13:59.341Z,6.70
2018-01-27T09:16:26.297Z,6.70
2018-01-27T09:18:52.531Z,6.60
2018-01-27T09:21:20.477Z,6.70
2018-01-27T09:23:46.706Z,6.80
2018-01-27T09:26:12.996Z,6.90
2018-01-27T09:28:39.258Z,7.00
2018-01-27T09:31:05.527Z,7.00
2018-01-27T09:33:32.046Z,6.90
2018-01-27T09:35:58.303Z,6.90
2018-01-27T09:38:27.575Z,7.00
2018-01-27T09:40:53.834Z,7.10
2018-01-27T09:43:20.123Z,7.10
2018-01-27T09:45:46.428Z,7.30
2018-01-27T09:48:12.762Z,7.20
2018-01-27T09:50:39.023Z,7.20
2018-01-27T09:53:05.316Z,7.30
2018-01-27T09:55:31.619Z,7.40
2018-01-27T09:58:03.870Z,7.40
2018-01-27T10:00:30.122Z,7.40
2018-01-27T10:02:56.362Z,7.30
2018-01-27T10:05:23.751Z,7.50
2018-01-27T10:07:50.051Z,7.40
2018-01-27T10:10:16.890Z,7.50
2018-01-27T10:12:43.147Z,7.60
2018-01-27T10:15:10.152Z,7.70
2018-01-27T10:17:36.512Z,7.60
2018-01-27T10:20:02.858Z,7.70
2018-01-27T10:22:31.507Z,7.70
2018-01-27T10:24:57.877Z,7.70
2018-01-27T10:27:24.127Z,7.70
2018-01-27T10:29:50.404Z,7.70
2018-01-27T10:32:16.632Z,7.70
2018-01-27T10:34:42.894Z,7.80
2018-01-27T10:37:09.199Z,7.80
2018-01-27T10:39:35.442Z,7.90
2018-01-27T10:42:01.692Z,7.90
2018-01-27T10:44:27.977Z,7.90
2018-01-27T10:46:54.268Z,8.00
2018-01-27T10:49:20.530Z,8.00
2018-01-27T10:51:46.819Z,8.00
2018-01-27T10:54:13.825Z,8.00
2018-01-27T10:56:40.216Z,8.00
2018-01-27T10:59:06.483Z,8.00
2018-01-27T11:01:32.848Z,8.00
2018-01-27T11:03:59.847Z,8.20
2018-01-27T11:06:26.113Z,8.20
2018-01-27T11:08:52.370Z,8.30
2018-01-27T11:11:18.663Z,8.40
2018-01-27T11:13:44.913Z,8.40
2018-01-27T11:16:11.726Z,8.40
2018-01-27T11:18:38.143Z,8.40
2018-01-27T11:21:04.375Z,8.40
2018-01-27T11:23:31.213Z,8.40
2018-01-27T11:25:57.477Z,8.40
2018-01-27T11:28:23.856Z,8.50
2018-01-27T11:30:50.252Z,8.40
2018-01-27T11:33:16.603Z,8.20
2018-01-27T11:35:43.590Z,8.30
2018-01-27T11:38:09.869Z,8.20
2018-01-27T11:40:36.107Z,8.30
2018-01-27T11:43:02.376Z,8.40
2018-01-27T11:45:28.627Z,8.50
2018-01-27T11:47:55.714Z,8.70
2018-01-27T11:50:22.015Z,8.60
2018-01-27T11:52:48.283Z,8.70
2018-01-27T11:55:15.294Z,8.90
2018-01-27T11:57:41.543Z,8.90
2018-01-27T12:00:07.848Z,8.90
2018-01-27T12:02:34.118Z,8.70
2018-01-27T12:05:00.371Z,8.80
2018-01-27T12:07:27.416Z,8.90
2018-01-27T12:09:53.670Z,8.80
2018-01-27T12:12:19.991Z,9.00
2018-01-27T12:14:46.999Z,9.20
2018-01-27T12:17:13.268Z,9.20
2018-01-27T12:19:40.257Z,9.40
2018-01-27T12:22:06.510Z,9.30
2018-01-27T12:24:32.750Z,9.30
2018-01-27T12:26:59.052Z,9.20
2018-01-27T12:29:25.283Z,9.00
2018-01-27T12:31:51.546Z,9.00
2018-01-27T12:34:18.526Z,9.40
2018-01-27T12:36:45.202Z,9.40
2018-01-27T12:39:11.439Z,9.60
2018-01-27T12:41:37.724Z,9.90
2018-01-27T12:44:03.987Z,10.10
2018-01-27T12:46:30.237Z,10.30
2018-01-27T12:48:56.544Z,10.40
2018-01-27T12:51:23.525Z,10.40
2018-01-27T12:53:49.795Z,10.30
2018-01-27T12:56:16.059Z,10.30
2018-01-27T12:58:42.311Z,10.50
2018-01-27T13:01:08.635Z,10.50
2018-01-27T13:03:34.934Z,10.70
2018-01-27T13:06:01.185Z,10.70
2018-01-27T13:08:27.431Z,10.80
2018-01-27T13:10:53.715Z,10.80
2018-01-27T13:13:20.698Z,10.90
2018-01-27T13:15:46.931Z,10.90
2018-01-27T13:18:13.187Z,10.90
2018-01-27T13:20:39.492Z,10.90
2018-01-27T13:23:05.747Z,10.80
2018-01-27T13:25:32.139Z,11.00
2018-01-27T13:27:58.412Z,11.00
2018-01-27T13:30:24.710Z,11.00
2018-01-27T13:32:50.962Z,11.10
2018-01-27T13:35:17.291Z,11.20
2018-01-27T13:37:43.555Z,11.20
2018-01-27T13:40:09.984Z,11.30
2018-01-27T13:42:36.382Z,11.40
2018-01-27T13:45:02.683Z,11.60
2018-01-27T13:47:28.949Z,11.70
2018-01-27T13:49:55.203Z,11.60
2018-01-27T13:52:21.495Z,11.60
2018-01-27T13:54:47.763Z,11.70
2018-01-27T13:57:14.041Z,11.70
2018-01-27T13:59:40.287Z,11.80
2018-01-27T14:02:06.575Z,11.80
2018-01-27T14:04:33.567Z,11.90
2018-01-27T14:06:59.843Z,11.90
2018-01-27T14:09:26.074Z,11.90
2018-01-27T14:11:52.336Z,12.00
2018-01-27T14:14:18.956Z,12.10
2018-01-27T14:16:45.219Z,12.20
2018-01-27T14:19:11.487Z,11.80
2018-01-27T14:21:37.747Z,11.70
2018-01-27T14:24:04.031Z,11.90
2018-01-27T14:26:30.268Z,11.90
2018-01-27T14:28:57.100Z,11.90
2018-01-27T14:31:23.351Z,11.50
2018-01-27T14:33:49.939Z,11.60
2018-01-27T14:36:16.166Z,11.70
2018-01-27T14:38:42.519Z,11.70
2018-01-27T14:41:09.496Z,11.50
2018-01-27T14:43:35.767Z,11.50
2018-01-27T14:46:02.019Z,11.60
2018-01-27T14:48:28.305Z,11.70
2018-01-27T14:50:54.599Z,11.60
2018-01-27T14:53:20.864Z,11.70
2018-01-27T14:55:47.175Z,11.80
2018-01-27T14:58:13.449Z,12.00
2018-01-27T15:00:39.739Z,12.20
2018-01-27T15:03:06.189Z,12.00
2018-01-27T15:05:32.480Z,11.80
2018-01-27T15:07:58.698Z,11.70
2018-01-27T15:10:24.999Z,11.60
2018-01-27T15:12:51.244Z,12.00
2018-01-27T15:15:17.555Z,12.10
2018-01-27T15:17:44.308Z,12.10
2018-01-27T15:20:10.707Z,12.10
2018-01-27T15:22:37.115Z,11.80
2018-01-27T15:25:09.471Z,11.60
2018-01-27T15:27:36.020Z,11.40
2018-01-27T15:30:02.264Z,11.20
2018-01-27T15:32:29.276Z,10.70
2018-01-27T15:34:55.500Z,10.70
2018-01-27T15:37:21.775Z,10.30
2018-01-27T15:39:48.022Z,10.10
2018-01-27T15:42:14.279Z,9.80
2018-01-27T15:44:40.514Z,9.60
2018-01-27T15:47:07.089Z,9.30
2018-01-27T15:49:33.350Z,9.10
2018-01-27T15:51:59.659Z,9.00
2018-01-27T15:54:26.726Z,8.60
2018-01-27T15:56:52.999Z,8.60
2018-01-27T15:59:19.287Z,8.50
2018-01-27T16:01:45.526Z,8.40
2018-01-27T16:04:12.700Z,8.30
2018-01-27T16:06:38.943Z,8.30
2018-01-27T16:09:05.197Z,8.20
2018-01-27T16:11:31.466Z,8.20
2018-01-27T16:14:05.243Z,8.10
2018-01-27T16:16:31.483Z,8.00
2018-01-27T16:18:57.782Z,7.90
2018-01-27T16:21:25.775Z,7.90
2018-01-27T16:23:52.063Z,7.80
2018-01-27T16:26:18.386Z,7.70
2018-01-27T16:28:44.610Z,7.70
2018-01-27T16:31:11.039Z,7.60
2018-01-27T16:33:37.380Z,7.60
2018-01-27T16:36:04.442Z,7.60
2018-01-27T16:38:30.647Z,7.60
2018-01-27T16:40:56.908Z,7.50
2018-01-27T16:43:23.199Z,7.50
2018-01-27T16:45:49.551Z,7.50
2018-01-27T16:48:16.168Z,7.40
2018-01-27T16:50:43.337Z,7.30
2018-01-27T16:53:10.463Z,7.20
2018-01-27T16:55:36.734Z,7.20
2018-01-27T16:58:02.979Z,7.20
2018-01-27T17:00:29.231Z,7.20
2018-01-27T17:02:55.886Z,7.20
2018-01-27T17:05:22.908Z,7.20
2018-01-27T17:07:49.300Z,7.10
2018-01-27T17:10:15.958Z,7.10
2018-01-27T17:12:42.464Z,7.10
2018-01-27T17:15:08.766Z,7.10
2018-01-27T17:17:35.031Z,7.10
2018-01-27T17:20:01.888Z,7.00
2018-01-27T17:22:29.004Z,7.00
2018-01-27T17:24:56.127Z,7.00
2018-01-27T17:27:22.428Z,7.00
2018-01-27T17:29:48.668Z,7.00
2018-01-27T17:32:14.971Z,7.00
2018-01-27T17:34:41.835Z,7.00
2018-01-27T17:37:08.167Z,6.90
2018-01-27T17:39:35.714Z,6.90
2018-01-27T17:42:01.943Z,6.90
2018-01-27T17:44:28.238Z,6.90
2018-01-27T17:46:54.471Z,6.80
2018-01-27T17:49:20.748Z,6.80
2018-01-27T17:51:47.091Z,6.80
2018-01-27T17:54:13.395Z,6.80
2018-01-27T17:56:39.642Z,6.80
2018-01-27T17:59:05.887Z,6.80
2018-01-27T18:01:32.188Z,6.80
2018-01-27T18:03:58.455Z,6.70
2018-01-27T18:06:24.746Z,6.70
2018-01-27T18:08:51.374Z,6.60
2018-01-27T18:11:17.631Z,6.60
2018-01-27T18:13:44.622Z,6.60
2018-01-27T18:16:11.030Z,6.60
2018-01-27T18:18:37.650Z,6.60
2018-01-27T18:21:03.978Z,6.60
2018-01-27T18:23:30.199Z,6.60
2018-01-27T18:25:57.240Z,6.60
2018-01-27T18:28:23.475Z,6.60
2018-01-27T18:30:50.487Z,6.50
2018-01-27T18:33:16.813Z,6.50
2018-01-27T18:35:43.075Z,6.60
2018-01-27T18:38:09.355Z,6.50
2018-01-27T18:40:35.590Z,6.50
2018-01-27T18:43:01.864Z,6.50
2018-01-27T18:45:28.195Z,6.60
2018-01-27T18:47:54.458Z,6.60
2018-01-27T18:50:20.743Z,6.60
2018-01-27T18:52:47.023Z,6.50
2018-01-27T18:55:13.266Z,6.40
2018-01-27T18:57:39.659Z,6.50
2018-01-27T19:00:05.937Z,6.50
2018-01-27T19:02:32.182Z,6.60
2018-01-27T19:04:58.430Z,6.60
2018-01-27T19:07:25.626Z,6.60
2018-01-27T19:09:51.915Z,6.60
2018-01-27T19:12:18.169Z,6.50
2018-01-27T19:14:45.171Z,6.60
2018-01-27T19:17:11.408Z,6.60
2018-01-27T19:19:37.704Z,6.60
2018-01-27T19:22:03.976Z,6.70
2018-01-27T19:24:30.214Z,6.70
2018-01-27T19:26:56.471Z,6.70
2018-01-27T19:29:22.990Z,6.70
2018-01-27T19:31:49.582Z,6.60
2018-01-27T19:34:17.665Z,6.80
2018-01-27T19:36:44.259Z,6.70
2018-01-27T19:39:10.502Z,6.80
2018-01-27T19:41:36.854Z,6.70
2018-01-27T19:44:03.843Z,6.80
2018-01-27T19:46:30.149Z,6.80
2018-01-27T19:48:56.474Z,6.80
2018-01-27T19:51:22.779Z,6.80
2018-01-27T19:53:49.791Z,6.80
2018-01-27T19:56:16.307Z,6.90
2018-01-27T19:58:42.558Z,6.90
2018-01-27T20:01:08.847Z,6.90
2018-01-27T20:03:35.836Z,7.00
2018-01-27T20:06:02.088Z,7.00
2018-01-27T20:08:30.076Z,6.90
2018-01-27T20:10:57.075Z,7.00
2018-01-27T20:13:23.327Z,7.00
2018-01-27T20:15:49.559Z,7.00
2018-01-27T20:18:15.823Z,7.00
2018-01-27T20:20:42.187Z,7.10
2018-01-27T20:23:08.503Z,7.00
2018-01-27T20:25:36.283Z,7.10
2018-01-27T20:28:02.543Z,7.10
2018-01-27T20:30:28.800Z,7.00
2018-01-27T20:32:55.063Z,7.10
2018-01-27T20:35:21.337Z,7.20
2018-01-27T20:37:47.578Z,7.20
2018-01-27T20:40:13.870Z,7.20
2018-01-27T20:42:40.845Z,7.30
2018-01-27T20:45:07.109Z,7.30
2018-01-27T20:47:33.383Z,7.30
2018-01-27T20:49:59.963Z,7.30
2018-01-27T20:52:26.235Z,7.30
2018-01-27T20:54:53.265Z,7.30
2018-01-27T20:57:19.511Z,7.30
2018-01-27T20:59:46.721Z,7.30
2018-01-27T21:02:12.931Z,7.20
2018-01-27T21:04:39.232Z,7.30
2018-01-27T21:07:06.354Z,7.30
2018-01-27T21:09:32.600Z,7.30
2018-01-27T21:11:58.903Z,7.30
2018-01-27T21:14:25.436Z,7.30
2018-01-27T21:16:52.314Z,7.30
2018-01-27T21:19:19.371Z,7.30
2018-01-27T21:21:46.484Z,7.30
2018-01-27T21:24:13.310Z,7.30
2018-01-27T21:26:40.501Z,7.30
2018-01-27T21:29:07.817Z,7.40
2018-01-27T21:31:35.053Z,7.30
2018-01-27T21:34:02.492Z,7.30
2018-01-27T21:36:29.728Z,7.30
2018-01-27T21:38:56.430Z,7.30
2018-01-27T21:41:24.128Z,7.20
2018-01-27T21:43:51.729Z,7.30
2018-01-27T21:46:18.015Z,7.20
2018-01-27T21:48:44.696Z,7.10
2018-01-27T21:51:10.974Z,7.10
2018-01-27T21:53:37.239Z,7.10
2018-01-27T21:56:04.074Z,7.00
2018-01-27T21:58:30.379Z,7.00
2018-01-27T22:00:56.654Z,7.00
2018-01-27T22:03:33.281Z,7.10
2018-01-27T22:06:00.845Z,7.00
2018-01-27T22:08:27.171Z,7.10
2018-01-27T22:10:53.547Z,7.00
2018-01-27T22:13:20.530Z,6.90
2018-01-27T22:15:46.811Z,6.90
2018-01-27T22:18:13.337Z,6.90
2018-01-27T22:20:39.689Z,7.00
2018-01-27T22:23:05.945Z,7.00
2018-01-27T22:25:32.370Z,7.10
2018-01-27T22:27:59.457Z,7.00
2018-01-27T22:30:26.715Z,7.00
2018-01-27T22:32:53.049Z,7.00
2018-01-27T22:35:19.307Z,7.00
2018-01-27T22:37:46.781Z,7.00
2018-01-27T22:40:13.079Z,7.00
2018-01-27T22:42:39.364Z,7.00
2018-01-27T22:45:05.651Z,6.90
2018-01-27T22:47:31.956Z,7.00
2018-01-27T22:49:58.215Z,7.00
2018-01-27T22:52:25.697Z,7.00
2018-01-27T22:54:52.846Z,7.00
2018-01-27T22:57:20.817Z,7.00
2018-01-27T22:59:48.468Z,7.10
2018-01-27T23:02:14.762Z,7.10
2018-01-27T23:04:41.023Z,7.00
2018-01-27T23:07:07.308Z,7.10
2018-01-27T23:09:33.971Z,7.10
2018-01-27T23:12:00.403Z,7.10
2018-01-27T23:14:26.999Z,7.10
2018-01-27T23:16:53.713Z,7.10
2018-01-27T23:19:20.771Z,7.20
2018-01-27T23:21:47.195Z,7.20
2018-01-27T23:24:13.491Z,7.20
2018-01-27T23:26:39.731Z,7.20
2018-01-27T23:29:05.990Z,7.10
2018-01-27T23:31:32.226Z,7.20
2018-01-27T23:33:58.504Z,7.20
2018-01-27T23:36:24.772Z,7.20
2018-01-27T23:38:51.044Z,7.20
2018-01-27T23:41:17.298Z,7.30
2018-01-27T23:43:43.544Z,7.30
2018-01-27T23:46:09.807Z,7.30
2018-01-27T23:48:36.122Z,7.30
2018-01-27T23:51:02.464Z,7.30
2018-01-27T23:53:28.834Z,7.30
2018-01-27T23:55:55.861Z,7.40
2018-01-27T23:58:25.068Z,7.40
